• Join FlightAware (Why Join?)
  • Login
  • US Flag 
05:17PM EST


 

Airport Tracker/Info


-or-


 

Live Flight TrackerFlight Track Log ✈ XOJ772 ✈ 27-Aug-2013 ✈ PHKO / KOA - KLAX

Flight Track Log - Related Links

Times and Time Zones

All times are in EDT time to prevent confusion due to time zone crossing. See the XOJ772 flight status page for this flight to view local times or setup timezone preferences in your user account.

Time Position Orientation Groundspeed Altitude Reporting Facility
EDT Latitude Longitude Course Direction KTS MPH feet Rate Location/Type
09:41PM 19.7000 -156.0667 335° Northwest 240 276 2,100  Level Honolulu Center
09:42PM 19.7667 -156.1000 335° Northwest 240 276 4,800 2,280 Climbing Honolulu Center
09:43PM 19.8167 -156.0833 17° North 250 288 6,700 1,980 Climbing Honolulu Center
09:44PM 19.8833 -156.0333 35° Northeast 300 345 8,900 1,920 Climbing Honolulu Center
09:45PM 19.9333 -155.9667 51° Northeast 290 334 10,600 1,740 Climbing Honolulu Center
09:46PM 19.9833 -155.8833 57° Northeast 330 380 12,400 1,920 Climbing Honolulu Center
09:47PM 20.0333 -155.8000 57° Northeast 340 391 14,500 1,860 Climbing Honolulu Center
09:48PM 20.0833 -155.7167 57° Northeast 360 414 16,200 1,500 Climbing Honolulu Center
09:49PM 20.1500 -155.6333 50° Northeast 370 426 17,600 1,440 Climbing Honolulu Center
09:50PM 20.2000 -155.5333 62° Northeast 380 437 19,200 1,440 Climbing Honolulu Center
09:51PM 20.2667 -155.4333 55° Northeast 380 437 20,600 1,440 Climbing Honolulu Center
09:52PM 20.3333 -155.3500 50° Northeast 400 460 22,100 1,320 Climbing Honolulu Center
09:53PM 20.4000 -155.2333 59° Northeast 390 449 23,300 1,140 Climbing Honolulu Center
09:54PM 20.4667 -155.1333 55° Northeast 410 472 24,500 1,140 Climbing Honolulu Center
09:55PM 20.5333 -155.0333 55° Northeast 420 483 25,700 1,140 Climbing Honolulu Center
09:56PM 20.6000 -154.9333 55° Northeast 430 495 26,900 1,200 Climbing Honolulu Center
09:57PM 20.6667 -154.8167 59° Northeast 440 506 28,200 1,200 Climbing Honolulu Center
09:58PM 20.7333 -154.7167 55° Northeast 440 506 29,400 1,140 Climbing Honolulu Center
09:59PM 20.8000 -154.6000 59° Northeast 450 518 30,500 1,020 Climbing Honolulu Center
10:00PM 20.8667 -154.4833 59° Northeast 460 529 31,500 960 Climbing Honolulu Center
10:01PM 20.9500 -154.3667 53° Northeast 470 541 32,500 960 Climbing Honolulu Center
10:02PM 21.0167 -154.2500 59° Northeast 480 552 33,500 960 Climbing Honolulu Center
10:03PM 21.1000 -154.1333 53° Northeast 480 552 34,500 960 Climbing Honolulu Center
10:04PM 21.1667 -154.0167 58° Northeast 490 564 35,500 960 Climbing Honolulu Center
10:05PM 21.2500 -153.8833 56° Northeast 490 564 36,500 960 Climbing Honolulu Center
10:06PM 21.3167 -153.7667 58° Northeast 500 575 37,500 1,020 Climbing Honolulu Center
10:07PM 21.4000 -153.6333 56° Northeast 500 575 38,600 720 Climbing Honolulu Center
10:08PM 21.4833 -153.5167 52° Northeast 510 587 39,000 180 Climbing Honolulu Center
10:09PM 21.5667 -153.3833 56° Northeast 520 598 39,000  Level Honolulu Center
10:10PM 21.6500 -153.2500 56° Northeast 520 598 39,100 300 Climbing Honolulu Center
10:11PM 21.7167 -153.1167 62° Northeast 530 610 39,700 660 Climbing Honolulu Center
10:12PM 21.8000 -152.9833 56° Northeast 520 598 40,500 780 Climbing Honolulu Center
10:13PM 21.8667 -152.8500 62° Northeast 520 598 41,300 600 Climbing Honolulu Center
10:14PM 21.9333 -152.7000 64° Northeast 520 598 41,800 480 Climbing Honolulu Center
10:15PM 22.0000 -152.5667 62° Northeast 520 598 42,300 360 Climbing Honolulu Center
10:16PM 22.0667 -152.4333 62° Northeast 520 598 42,600 300 Climbing Honolulu Center
10:17PM 22.1333 -152.3000 62° Northeast 520 598 43,000 60 Climbing Honolulu Center
10:19PM 22.2255 -152.1078 63° Northeast  Level FlightAware Approximate
10:22PM 22.3500 -151.8833 62° Northeast 534 615 43,000  Level Oakland Oceanic (ODAPS)
10:26PM 22.6807 -151.1699 62° Northeast  Level FlightAware Approximate
10:27PM 22.7456 -151.0356 62° Northeast  Level FlightAware Approximate
10:28PM 22.8104 -150.9012 62° Northeast  Level FlightAware Approximate
10:29PM 22.9709 -150.6043 63° Northeast 534 615 43,000  Level FlightAware Transoceanic
10:30PM 23.0392 -150.4614 63° Northeast 534 615 43,000  Level FlightAware Transoceanic
10:31PM 23.1075 -150.3185 63° Northeast 534 615 43,000  Level FlightAware Transoceanic
10:32PM 23.1756 -150.1753 63° Northeast 534 615 43,000  Level FlightAware Transoceanic
10:33PM 23.2435 -150.0321 63° Northeast 534 615 43,000  Level FlightAware Transoceanic
10:34PM 23.3114 -149.8886 63° Northeast 534 615 43,000  Level FlightAware Transoceanic
10:35PM 23.3791 -149.7451 63° Northeast 534 615 43,000  Level FlightAware Transoceanic
10:36PM 23.4467 -149.6014 63° Northeast 534 615 43,000  Level FlightAware Transoceanic
10:37PM 23.5141 -149.4575 63° Northeast 534 615 43,000  Level FlightAware Transoceanic
10:38PM 23.5814 -149.3135 63° Northeast 534 615 43,000  Level FlightAware Transoceanic
10:39PM 23.6486 -149.1694 63° Northeast 534 615 43,000  Level FlightAware Transoceanic
10:40PM 23.7157 -149.0251 63° Northeast 534 615 43,000  Level FlightAware Transoceanic
10:41PM 23.7826 -148.8806 63° Northeast 534 615 43,000  Level FlightAware Transoceanic
10:42PM 23.8494 -148.7360 63° Northeast 534 615 43,000  Level FlightAware Transoceanic
10:43PM 23.9160 -148.5913 63° Northeast 534 615 43,000  Level FlightAware Transoceanic
10:44PM 23.9825 -148.4464 63° Northeast 534 615 43,000  Level FlightAware Transoceanic
10:45PM 24.0489 -148.3013 63° Northeast 534 615 43,000  Level FlightAware Transoceanic
10:46PM 24.1151 -148.1561 63° Northeast 534 615 43,000  Level FlightAware Transoceanic
10:47PM 24.1812 -148.0108 64° Northeast 534 615 43,000  Level FlightAware Transoceanic
10:48PM 24.2472 -147.8653 64° Northeast 534 615 43,000  Level FlightAware Transoceanic
10:49PM 24.3130 -147.7197 64° Northeast 534 615 43,000  Level FlightAware Transoceanic
10:50PM 24.3787 -147.5739 64° Northeast 534 615 43,000  Level FlightAware Transoceanic
10:51PM 24.4442 -147.4279 64° Northeast 534 615 43,000  Level FlightAware Transoceanic
10:52PM 24.5096 -147.2818 64° Northeast 534 615 43,000  Level FlightAware Transoceanic
10:53PM 24.5749 -147.1355 64° Northeast 534 615 43,000  Level FlightAware Transoceanic
10:54PM 24.6400 -146.9892 64° Northeast 534 615 43,000  Level FlightAware Transoceanic
10:55PM 24.7050 -146.8426 64° Northeast 534 615 43,000  Level FlightAware Transoceanic
10:56PM 24.7698 -146.6959 64° Northeast 534 615 43,000  Level FlightAware Transoceanic
10:57PM 24.8345 -146.5490 64° Northeast 534 615 43,000  Level FlightAware Transoceanic
10:58PM 24.8991 -146.4020 64° Northeast 534 615 43,000  Level FlightAware Transoceanic
10:59PM 24.9635 -146.2548 64° Northeast 534 615 43,000  Level FlightAware Transoceanic
11:00PM 25.0278 -146.1075 64° Northeast 534 615 43,000  Level FlightAware Transoceanic
11:01PM 25.0919 -145.9600 64° Northeast 534 615 43,000  Level FlightAware Transoceanic
11:02PM 25.1558 -145.8124 64° Northeast 534 615 43,000  Level FlightAware Transoceanic
11:03PM 25.2197 -145.6646 65° Northeast 534 615 43,000  Level FlightAware Transoceanic
11:04PM 25.2833 -145.5167 65° Northeast 534 615 43,000  Level FlightAware Transoceanic
11:05PM 25.3465 -145.3685 65° Northeast 534 615 43,000  Level FlightAware Transoceanic
11:06PM 25.4096 -145.2202 65° Northeast 534 615 43,000  Level FlightAware Transoceanic
11:07PM 25.4725 -145.0718 65° Northeast 534 615 43,000 2,760 Level FlightAware Transoceanic
11:07PM 25.2833 -145.5167 65° Northeast 509 586 47,000  Climbing Oakland Oceanic (ODAPS)
11:08PM 25.5353 -144.9232 65° Northeast 534 615 43,000 -2,580 Descending FlightAware Transoceanic
11:09PM 25.5910 -144.7910 65° Northeast 534 615 43,000  Level FlightAware Transoceanic
11:10PM 25.6521 -144.6454 65° Northeast 534 615 43,000  Level FlightAware Transoceanic
11:11PM 25.7130 -144.4997 65° Northeast 534 615 43,000  Level FlightAware Transoceanic
11:12PM 25.7738 -144.3538 65° Northeast 534 615 43,000 1,980 Level FlightAware Transoceanic
11:13PM 25.7632 -144.3792 65° Northeast 509 586 47,000 1,980 Climbing FlightAware Transoceanic
11:14PM 25.8226 -144.2364 65° Northeast 509 586 47,000  Level FlightAware Transoceanic
11:15PM 25.8818 -144.0934 65° Northeast 509 586 47,000  Level FlightAware Transoceanic
11:16PM 25.9409 -143.9503 65° Northeast 509 586 47,000  Level FlightAware Transoceanic
11:17PM 25.9999 -143.8071 65° Northeast 509 586 47,000  Level FlightAware Transoceanic
11:18PM 26.0587 -143.6637 66° East 509 586 47,000  Level FlightAware Transoceanic
11:19PM 26.1173 -143.5201 66° East 509 586 47,000  Level FlightAware Transoceanic
11:20PM 26.1759 -143.3764 66° East 509 586 47,000  Level FlightAware Transoceanic
11:21PM 26.2342 -143.2326 66° East 509 586 47,000  Level FlightAware Transoceanic
11:22PM 26.2925 -143.0886 66° East 509 586 47,000  Level FlightAware Transoceanic
11:23PM 26.3506 -142.9445 66° East 509 586 47,000  Level FlightAware Transoceanic
11:24PM 26.4085 -142.8002 66° East 509 586 47,000  Level FlightAware Transoceanic
11:25PM 26.4663 -142.6558 66° East 509 586 47,000  Level FlightAware Transoceanic
11:26PM 26.5240 -142.5113 66° East 509 586 47,000  Level FlightAware Transoceanic
11:27PM 26.5815 -142.3666 66° East 509 586 47,000  Level FlightAware Transoceanic
11:28PM 26.6389 -142.2217 66° East 509 586 47,000  Level FlightAware Transoceanic
11:29PM 26.6961 -142.0768 66° East 509 586 47,000  Level FlightAware Transoceanic
11:30PM 26.7532 -141.9316 66° East 509 586 47,000  Level FlightAware Transoceanic
11:31PM 26.8101 -141.7863 66° East 509 586 47,000  Level FlightAware Transoceanic
11:32PM 26.8668 -141.6409 66° East 509 586 47,000  Level FlightAware Transoceanic
11:33PM 26.9235 -141.4953 66° East 509 586 47,000  Level FlightAware Transoceanic
11:34PM 26.9799 -141.3496 67° East 509 586 47,000  Level FlightAware Transoceanic
11:35PM 27.0363 -141.2038 67° East 509 586 47,000  Level FlightAware Transoceanic
11:36PM 27.0924 -141.0578 67° East 509 586 47,000  Level FlightAware Transoceanic
11:37PM 27.1485 -140.9116 67° East 509 586 47,000  Level FlightAware Transoceanic
11:38PM 27.2043 -140.7653 67° East 509 586 47,000  Level FlightAware Transoceanic
11:39PM 27.2601 -140.6189 67° East 509 586 47,000  Level FlightAware Transoceanic
11:40PM 27.3156 -140.4722 67° East 509 586 47,000  Level FlightAware Transoceanic
11:41PM 27.3710 -140.3255 67° East 509 586 47,000  Level FlightAware Transoceanic
11:42PM 27.4263 -140.1786 67° East 509 586 47,000  Level FlightAware Transoceanic
11:43PM 27.4814 -140.0316 67° East 509 586 47,000  Level FlightAware Transoceanic
11:44PM 27.5364 -139.8844 67° East 509 586 47,000  Level FlightAware Transoceanic
11:45PM 27.5912 -139.7371 67° East 509 586 47,000  Level FlightAware Transoceanic
11:46PM 27.6458 -139.5896 67° East 509 586 47,000  Level FlightAware Transoceanic
11:47PM 27.7003 -139.4420 67° East 509 586 47,000  Level FlightAware Transoceanic
11:48PM 27.7546 -139.2942 67° East 509 586 47,000  Level FlightAware Transoceanic
11:49PM 27.8088 -139.1463 68° East 509 586 47,000  Level FlightAware Transoceanic
11:50PM 27.8628 -138.9982 68° East 509 586 47,000  Level FlightAware Transoceanic
11:51PM 27.9167 -138.8500 68° East 509 586 47,000  Level FlightAware Transoceanic
11:52PM 27.9721 -138.6967 68° East 509 586 47,000  Level FlightAware Transoceanic
11:53PM 28.0274 -138.5432 68° East 509 586 47,000  Level FlightAware Transoceanic
11:54PM 28.0826 -138.3895 68° East 509 586 47,000  Level FlightAware Transoceanic
11:55PM 28.1375 -138.2357 68° East 509 586 47,000  Level FlightAware Transoceanic
11:56PM 28.1923 -138.0817 68° East 509 586 47,000  Level FlightAware Transoceanic
11:57PM 28.2469 -137.9276 68° East 509 586 47,000  Level FlightAware Transoceanic
11:57PM 27.9167 -138.8500 68° East 516 594 47,000  Level Oakland Oceanic (ODAPS)
11:58PM 28.3013 -137.7733 68° East 509 586 47,000  Level FlightAware Transoceanic
11:59PM 28.3556 -137.6188 68° East 509 586 47,000  Level FlightAware Transoceanic
12:00AM 28.4097 -137.4642 68° East 509 586 47,000  Level FlightAware Transoceanic
12:01AM 28.4636 -137.3095 68° East 509 586 47,000  Level FlightAware Transoceanic
12:02AM 28.5173 -137.1546 68° East 509 586 47,000  Level FlightAware Transoceanic
12:03AM 28.6096 -136.8872 69° East 516 594 47,000  Level FlightAware Transoceanic
12:04AM 28.6617 -136.7351 69° East 516 594 47,000  Level FlightAware Transoceanic
12:05AM 28.7136 -136.5829 69° East 516 594 47,000  Level FlightAware Transoceanic
12:06AM 28.7654 -136.4306 69° East 516 594 47,000  Level FlightAware Transoceanic
12:07AM 28.8170 -136.2781 69° East 516 594 47,000  Level FlightAware Transoceanic
12:08AM 28.8685 -136.1255 69° East 516 594 47,000  Level FlightAware Transoceanic
12:09AM 28.9198 -135.9727 69° East 516 594 47,000  Level FlightAware Transoceanic
12:10AM 28.9708 -135.8197 69° East 516 594 47,000  Level FlightAware Transoceanic
12:11AM 29.0218 -135.6666 69° East 516 594 47,000  Level FlightAware Transoceanic
12:12AM 29.0725 -135.5134 69° East 516 594 47,000  Level FlightAware Transoceanic
12:13AM 29.1231 -135.3600 69° East 516 594 47,000  Level FlightAware Transoceanic
12:14AM 29.1735 -135.2064 69° East 516 594 47,000  Level FlightAware Transoceanic
12:15AM 29.2237 -135.0527 70° East 516 594 47,000  Level FlightAware Transoceanic
12:16AM 29.2738 -134.8989 70° East 516 594 47,000  Level FlightAware Transoceanic
12:17AM 29.3237 -134.7448 70° East 516 594 47,000  Level FlightAware Transoceanic
12:18AM 29.3734 -134.5907 70° East 516 594 47,000  Level FlightAware Transoceanic
12:19AM 29.4229 -134.4364 70° East 516 594 47,000  Level FlightAware Transoceanic
12:20AM 29.4722 -134.2819 70° East 516 594 47,000  Level FlightAware Transoceanic
12:21AM 29.5214 -134.1273 70° East 516 594 47,000  Level FlightAware Transoceanic
12:22AM 29.5704 -133.9726 70° East 516 594 47,000  Level FlightAware Transoceanic
12:23AM 29.6192 -133.8177 70° East 516 594 47,000  Level FlightAware Transoceanic
12:24AM 29.6678 -133.6626 70° East 516 594 47,000  Level FlightAware Transoceanic
12:25AM 29.7163 -133.5074 70° East 516 594 47,000  Level FlightAware Transoceanic
12:26AM 29.7645 -133.3521 70° East 516 594 47,000  Level FlightAware Transoceanic
12:27AM 29.8126 -133.1966 70° East 516 594 47,000  Level FlightAware Transoceanic
12:28AM 29.8605 -133.0409 71° East 516 594 47,000  Level FlightAware Transoceanic
12:29AM 29.9082 -132.8851 71° East 516 594 47,000  Level FlightAware Transoceanic
12:30AM 29.9558 -132.7292 71° East 516 594 47,000  Level FlightAware Transoceanic
12:31AM 30.0031 -132.5730 71° East 516 594 47,000  Level FlightAware Transoceanic
12:32AM 30.0503 -132.4168 71° East 516 594 47,000  Level FlightAware Transoceanic
12:33AM 30.0973 -132.2604 71° East 516 594 47,000  Level FlightAware Transoceanic
12:34AM 30.1441 -132.1039 71° East 516 594 47,000  Level FlightAware Transoceanic
12:35AM 30.1907 -131.9472 71° East 516 594 47,000  Level FlightAware Transoceanic
12:36AM 30.2371 -131.7903 71° East 516 594 47,000  Level FlightAware Transoceanic
12:37AM 30.2833 -131.6333 71° East 516 594 47,000 -2,580 Level FlightAware Transoceanic
12:37AM 30.2833 -131.6333 71° East 578 665 43,000  Descending Oakland Oceanic (ODAPS)
12:38AM 30.3307 -131.4730 71° East 516 594 47,000 2,760 Climbing FlightAware Transoceanic
12:39AM 30.3778 -131.3124 71° East 516 594 47,000  Level FlightAware Transoceanic
12:40AM 30.4248 -131.1517 71° East 516 594 47,000  Level FlightAware Transoceanic
12:41AM 30.4715 -130.9909 71° East 516 594 47,000  Level FlightAware Transoceanic
12:42AM 30.5181 -130.8299 71° East 516 594 47,000 -2,040 Level FlightAware Transoceanic
12:43AM 30.6914 -130.2229 72° East 578 665 43,000 -2,040 Descending FlightAware Transoceanic
12:44AM 30.7414 -130.0458 72° East 578 665 43,000  Level FlightAware Transoceanic
12:45AM 30.7911 -129.8685 72° East 578 665 43,000  Level FlightAware Transoceanic
12:46AM 30.8405 -129.6910 72° East 578 665 43,000  Level FlightAware Transoceanic
12:47AM 30.8897 -129.5133 72° East 578 665 43,000  Level FlightAware Transoceanic
12:48AM 30.9387 -129.3354 72° East 578 665 43,000  Level FlightAware Transoceanic
12:49AM 30.9874 -129.1574 72° East 578 665 43,000  Level FlightAware Transoceanic
12:50AM 31.0359 -128.9791 72° East 578 665 43,000  Level FlightAware Transoceanic
12:51AM 31.0842 -128.8007 73° East 578 665 43,000  Level FlightAware Transoceanic
12:52AM 31.1322 -128.6221 73° East 578 665 43,000  Level FlightAware Transoceanic
12:53AM 31.1799 -128.4434 73° East 578 665 43,000  Level FlightAware Transoceanic
12:54AM 31.2274 -128.2644 73° East 578 665 43,000  Level FlightAware Transoceanic
12:55AM 31.2747 -128.0853 73° East 578 665 43,000  Level FlightAware Transoceanic
12:56AM 31.3217 -127.9060 73° East 578 665 43,000  Level FlightAware Transoceanic
12:57AM 31.3684 -127.7265 73° East 578 665 43,000  Level FlightAware Transoceanic
12:58AM 31.4149 -127.5468 73° East 578 665 43,000  Level FlightAware Transoceanic
12:59AM 31.4612 -127.3670 73° East 578 665 43,000  Level FlightAware Transoceanic
01:00AM 31.5072 -127.1870 73° East 578 665 43,000  Level FlightAware Transoceanic
01:01AM 31.5529 -127.0068 73° East 578 665 43,000  Level FlightAware Transoceanic
01:02AM 31.5984 -126.8264 74° East 578 665 43,000  Level FlightAware Transoceanic
01:03AM 31.6437 -126.6459 74° East 578 665 43,000  Level FlightAware Transoceanic
01:04AM 31.6886 -126.4651 74° East 578 665 43,000  Level FlightAware Transoceanic
01:05AM 31.7334 -126.2842 74° East 578 665 43,000  Level FlightAware Transoceanic
01:06AM 31.7778 -126.1031 74° East 578 665 43,000  Level FlightAware Transoceanic
01:07AM 31.8221 -125.9219 74° East 578 665 43,000  Level FlightAware Transoceanic
01:08AM 31.8660 -125.7405 74° East 578 665 43,000  Level FlightAware Transoceanic
01:09AM 31.9097 -125.5589 74° East 578 665 43,000  Level FlightAware Transoceanic
01:10AM 31.9532 -125.3771 74° East 578 665 43,000  Level FlightAware Transoceanic
01:11AM 31.9964 -125.1952 74° East 578 665 43,000  Level FlightAware Transoceanic
01:12AM 32.0393 -125.0131 75° East 578 665 43,000  Level FlightAware Transoceanic
01:13AM 32.0820 -124.8308 75° East 578 665 43,000  Level FlightAware Transoceanic
01:14AM 32.1244 -124.6484 75° East 578 665 43,000  Level FlightAware Transoceanic
01:15AM 32.1665 -124.4657 75° East 578 665 43,000  Level FlightAware Transoceanic
01:16AM 32.2084 -124.2830 75° East 578 665 43,000  Level FlightAware Transoceanic
01:17AM 32.2500 -124.1000 77° East 578 665 43,000  Level FlightAware Transoceanic
01:18AM 32.2868 -123.9170 77° East 578 665 43,000  Level FlightAware Transoceanic
01:19AM 32.3233 -123.7339 77° East 578 665 43,000  Level FlightAware Transoceanic
01:20AM 32.3595 -123.5507 77° East 578 665 43,000  Level FlightAware Transoceanic
01:20AM 32.3219 -123.6597 74° East 555 639 43,000  Level Los Angeles Center
01:21AM 32.3955 -123.3672 77° East 578 665 43,000  Level FlightAware Transoceanic
01:21AM 32.3606 -123.4844 75° East 553 636 43,000  Level Los Angeles Center
01:22AM 32.4312 -123.1837 77° East 578 665 43,000  Level FlightAware Transoceanic
01:22AM 32.3947 -123.3039 77° East 558 642 43,000  Level Los Angeles Center
01:23AM 32.4579 -123.0458 77° East  Level FlightAware Approximate
01:23AM 32.4242 -123.1214 79° East 563 648 43,000  Level Los Angeles Center
01:24AM 32.4844 -122.9077 77° East  Level FlightAware Approximate
01:24AM 32.4589 -122.9450 77° East 559 643 43,000  Level Los Angeles Center
01:25AM 32.5164 -122.7715 74° East  Level FlightAware Approximate
01:25AM 32.4947 -122.7694 76° East 555 639 43,000  Level Los Angeles Center
01:26AM 32.5283 -122.5911 77° East 556 640 43,000  Level Los Angeles Center
01:27AM 32.5603 -122.4108 78° East 558 642 43,000  Level Los Angeles Center
01:28AM 32.5925 -122.2319 78° East 558 642 43,000  Level Los Angeles Center
01:29AM 32.6244 -122.0550 78° East 555 639 43,000  Level Los Angeles Center
01:30AM 32.6569 -121.8792 78° East 552 635 43,000  Level Los Angeles Center
01:31AM 32.6919 -121.7139 76° East 538 619 43,000  Level Los Angeles Center
01:32AM 32.7228 -121.5364 78° East 550 633 43,000  Level Los Angeles Center
01:33AM 32.7536 -121.3608 78° East 548 631 43,000  Level Los Angeles Center
01:34AM 32.7892 -121.1503 79° East 546 628 43,000  Level Los Angeles Center
01:35AM 32.8192 -120.9739 79° East 546 628 43,000  Level Los Angeles Center
01:36AM 32.8481 -120.7975 79° East 547 629 43,000  Level Los Angeles Center
01:37AM 32.8772 -120.6219 79° East 545 627 43,000  Level Los Angeles Center
01:38AM 32.9064 -120.4478 79° East 543 625 43,000  Level Los Angeles Center
01:39AM 32.9350 -120.2714 79° East 545 627 43,000 -300 Level Los Angeles Center
01:40AM 32.9622 -120.1008 79° East 534 615 42,400 -2,040 Descending Los Angeles Center
01:41AM 32.9911 -119.9269 79° East 511 588 38,900 -3,600 Descending Los Angeles Center
01:42AM 33.0172 -119.7592 79° East 515 593 35,200 -3,660 Descending Los Angeles Center
01:43AM 33.0431 -119.5942 79° East 511 588 31,600 -3,600 Descending Los Angeles Center
01:44AM 33.0697 -119.4319 79° East 503 579 28,000 -3,540 Descending Los Angeles Center
01:45AM 33.0931 -119.2725 80° East 493 567 24,500 -3,420 Descending Los Angeles Center
01:46AM 33.1161 -119.1219 80° East 470 541 21,200 -3,180 Descending Los Angeles Center
01:47AM 33.1392 -118.9786 79° East 443 510 18,200 -2,940 Descending Los Angeles Center
01:48AM 33.1594 -118.8500 79° East 401 461 15,300 -2,760 Descending Los Angeles Center
01:49AM 33.1783 -118.7275 80° East 377 434 12,700 -1,680 Descending Los Angeles Center
01:50AM 33.2217 -118.6242 63° Northeast 351 404 12,000 -360 Descending Los Angeles Center
01:51AM 33.2875 -118.5372 48° Northeast 350 403 12,000  Level Los Angeles Center
01:52AM 33.3517 -118.4500 49° Northeast 351 404 12,000  Level Los Angeles Center
01:53AM 33.3911 -118.3200 70° East 351 404 12,000  Level Los Angeles Center
01:54AM 33.4061 -118.2108 81° East 340 391 12,000  Level Los Angeles Center
01:55AM 33.4414 -118.1208 65° Northeast 307 353 12,000 -300 Level Los Angeles Center
01:56AM 33.5094 -118.0556 39° Northeast 317 365 11,500 -1,440 Descending Los Angeles Center
01:57AM 33.5864 -118.0092 27° Northeast 317 365 9,100 -2,220 Descending Los Angeles Center
01:58AM 33.6700 -118.0139 357° North 309 356 7,100 -1,080 Descending Los Angeles Center
01:59AM 33.7403 -118.0400 343° North 278 320 7,000 -60 Descending Los Angeles Center
02:00AM 33.8086 -118.0628 345° North 266 306 7,000 -660 Level Los Angeles Center
02:02AM 33.8769 -118.0756 351° North 257 296 5,700 -1,080 Descending Los Angeles Center
02:03AM 33.9442 -118.0850 353° North 249 287 4,900 -1,080 Descending Los Angeles Center
02:04AM 33.9633 -118.1456 291° West 204 235 3,600 -960 Descending Los Angeles Center
02:05AM 33.9558 -118.2019 261° West 187 215 3,000 -600 Descending Los Angeles Center
02:06AM 33.9494 -118.2611 263° West 164 189 2,400 -840 Descending Los Angeles Center
02:07AM 33.9447 -118.3103 263° West 154 177 1,400 -900 Descending Los Angeles Center
02:08AM 33.9408 -118.3569 264° West 147 169 600 -660 Descending Los Angeles Center
02:09AM 33.9653 -118.4075 300° West 172 198 100 -540 Descending Los Angeles Center